createdAt,value
2023-04-25T00:00:58.572Z,6.70
2023-04-25T00:06:20.590Z,6.70
2023-04-25T00:08:49.026Z,6.70
2023-04-25T00:11:16.915Z,6.70
2023-04-25T00:13:43.555Z,6.70
2023-04-25T00:16:10.224Z,6.70
2023-04-25T00:18:43.740Z,6.70
2023-04-25T00:21:10.734Z,6.70
2023-04-25T00:23:42.315Z,6.70
2023-04-25T00:26:11.252Z,6.70
2023-04-25T00:28:41.608Z,6.80
2023-04-25T00:31:08.327Z,6.80
2023-04-25T00:33:41.229Z,6.80
2023-04-25T00:36:08.606Z,6.80
2023-04-25T00:38:35.527Z,6.70
2023-04-25T00:46:51.880Z,6.80
2023-04-25T00:49:23.063Z,6.80
2023-04-25T00:51:55.223Z,6.80
2023-04-25T00:57:13.605Z,6.80
2023-04-25T00:59:47.218Z,6.80
2023-04-25T01:02:14.322Z,6.80
2023-04-25T01:04:41.298Z,6.80
2023-04-25T01:07:08.059Z,6.90
2023-04-25T01:09:34.899Z,6.80
2023-04-25T01:12:02.080Z,6.80
2023-04-25T01:14:28.765Z,6.80
2023-04-25T01:16:55.744Z,6.80
2023-04-25T01:19:22.604Z,6.80
2023-04-25T01:21:49.334Z,6.80
2023-04-25T01:24:16.426Z,6.80
2023-04-25T01:26:50.510Z,6.80
2023-04-25T01:29:18.746Z,6.80
2023-04-25T01:31:45.917Z,6.90
2023-04-25T01:34:13.669Z,6.80
2023-04-25T01:36:40.987Z,6.80
2023-04-25T01:39:08.434Z,6.80
2023-04-25T01:41:38.309Z,6.80
2023-04-25T01:44:05.279Z,6.80
2023-04-25T01:46:32.433Z,6.80
2023-04-25T01:48:59.235Z,6.80
2023-04-25T01:51:26.172Z,6.70
2023-04-25T01:53:53.471Z,6.70
2023-04-25T01:56:20.341Z,6.70
2023-04-25T01:58:47.135Z,6.70
2023-04-25T02:01:14.007Z,6.70
2023-04-25T02:03:40.950Z,6.70
2023-04-25T02:06:08.178Z,6.70
2023-04-25T02:08:38.138Z,6.70
2023-04-25T02:11:04.980Z,6.60
2023-04-25T02:13:31.648Z,6.70
2023-04-25T02:16:01.261Z,6.60
2023-04-25T02:18:27.944Z,6.60
2023-04-25T02:20:54.977Z,6.60
2023-04-25T02:23:21.713Z,6.60
2023-04-25T02:25:49.281Z,6.60
2023-04-25T02:28:15.940Z,6.60
2023-04-25T02:30:42.593Z,6.60
2023-04-25T02:33:09.286Z,6.60
2023-04-25T02:35:36.250Z,6.50
2023-04-25T02:38:03.061Z,6.50
2023-04-25T02:40:29.675Z,6.50
2023-04-25T02:42:56.342Z,6.50
2023-04-25T02:45:23.002Z,6.50
2023-04-25T02:47:49.698Z,6.50
2023-04-25T02:50:16.408Z,6.50
2023-04-25T02:52:43.038Z,6.50
2023-04-25T02:55:09.966Z,6.50
2023-04-25T02:57:36.643Z,6.50
2023-04-25T03:00:08.131Z,6.50
2023-04-25T03:02:38.300Z,6.40
2023-04-25T03:05:05.632Z,6.40
2023-04-25T03:07:32.384Z,6.40
2023-04-25T03:09:59.140Z,6.40
2023-04-25T03:12:25.850Z,6.40
2023-04-25T03:14:52.477Z,6.40
2023-04-25T03:17:19.406Z,6.30
2023-04-25T03:19:46.841Z,6.30
2023-04-25T03:22:13.511Z,6.30
2023-04-25T03:24:40.238Z,6.30
2023-04-25T03:27:07.104Z,6.40
2023-04-25T03:29:35.361Z,6.40
2023-04-25T03:32:02.069Z,6.30
2023-04-25T03:34:29.101Z,6.30
2023-04-25T03:36:56.139Z,6.30
2023-04-25T03:39:22.907Z,6.30
2023-04-25T03:41:49.582Z,6.30
2023-04-25T03:44:16.258Z,6.30
2023-04-25T03:46:42.919Z,6.20
2023-04-25T03:49:10.100Z,6.20
2023-04-25T03:51:37.102Z,6.20
2023-04-25T03:54:03.911Z,6.30
2023-04-25T03:56:33.978Z,6.30
2023-04-25T03:59:02.693Z,6.30
2023-04-25T04:01:29.691Z,6.30
2023-04-25T04:03:56.829Z,6.30
2023-04-25T04:06:23.837Z,6.20
2023-04-25T04:08:50.587Z,6.30
2023-04-25T04:11:17.235Z,6.30
2023-04-25T04:13:46.760Z,6.30
2023-04-25T04:16:13.569Z,6.40
2023-04-25T04:18:40.275Z,6.30
2023-04-25T04:21:07.043Z,6.40
2023-04-25T04:23:34.575Z,6.40
2023-04-25T04:26:01.971Z,6.40
2023-04-25T04:28:29.054Z,6.40
2023-04-25T04:30:56.489Z,6.40
2023-04-25T04:33:24.494Z,6.30
2023-04-25T04:35:53.242Z,6.30
2023-04-25T04:38:20.688Z,6.20
2023-04-25T04:40:48.662Z,6.20
2023-04-25T04:43:18.035Z,6.20
2023-04-25T04:45:46.289Z,6.20
2023-04-25T04:48:15.002Z,6.20
2023-04-25T04:50:43.647Z,6.20
2023-04-25T04:53:10.559Z,6.30
2023-04-25T04:55:37.249Z,6.30
2023-04-25T04:58:03.912Z,6.30
2023-04-25T05:00:31.199Z,6.30
2023-04-25T05:02:57.999Z,6.30
2023-04-25T05:05:24.894Z,6.30
2023-04-25T05:07:51.814Z,6.30
2023-04-25T05:10:20.171Z,6.30
2023-04-25T05:12:47.046Z,6.30
2023-04-25T05:15:15.829Z,6.30
2023-04-25T05:17:42.603Z,6.30
2023-04-25T05:20:12.482Z,6.30
2023-04-25T05:22:39.113Z,6.30
2023-04-25T05:25:06.462Z,6.40
2023-04-25T05:27:34.282Z,6.40
2023-04-25T05:30:00.998Z,6.50
2023-04-25T05:32:28.302Z,6.70
2023-04-25T05:34:55.133Z,7.00
2023-04-25T05:37:21.811Z,7.20
2023-04-25T05:39:48.709Z,7.40
2023-04-25T05:42:15.464Z,7.50
2023-04-25T05:44:42.227Z,7.60
2023-04-25T05:47:08.923Z,7.70
2023-04-25T05:49:36.001Z,7.90
2023-04-25T05:52:05.504Z,7.90
2023-04-25T05:54:32.392Z,7.80
2023-04-25T05:56:59.652Z,7.90
2023-04-25T05:59:27.028Z,7.80
2023-04-25T06:01:56.508Z,7.80
2023-04-25T06:04:26.789Z,7.80
2023-04-25T06:06:53.638Z,7.90
2023-04-25T06:09:23.711Z,8.00
2023-04-25T06:11:52.816Z,8.10
2023-04-25T06:14:19.689Z,8.20
2023-04-25T06:16:46.316Z,8.20
2023-04-25T06:19:12.942Z,8.30
2023-04-25T06:21:39.582Z,8.50
2023-04-25T06:24:06.461Z,8.80
2023-04-25T06:26:33.076Z,8.90
2023-04-25T06:28:59.711Z,9.00
2023-04-25T06:31:26.995Z,9.00
2023-04-25T06:33:55.750Z,9.10
2023-04-25T06:36:29.599Z,9.40
2023-04-25T06:38:56.268Z,9.70
2023-04-25T06:41:25.870Z,9.90
2023-04-25T06:43:52.527Z,9.80
2023-04-25T06:46:19.903Z,9.70
2023-04-25T06:48:49.971Z,9.80
2023-04-25T06:51:16.916Z,9.90
2023-04-25T06:53:43.629Z,10.20
2023-04-25T06:56:11.047Z,10.60
2023-04-25T06:58:38.960Z,10.90
2023-04-25T07:01:05.833Z,11.30
2023-04-25T07:03:32.698Z,11.70
2023-04-25T07:05:59.669Z,11.80
2023-04-25T07:08:26.352Z,11.70
2023-04-25T07:10:53.036Z,11.70
2023-04-25T07:13:19.839Z,11.80
2023-04-25T07:15:46.549Z,11.80
2023-04-25T07:18:13.267Z,12.10
2023-04-25T07:20:40.056Z,12.30
2023-04-25T07:23:06.682Z,12.60
2023-04-25T07:25:33.433Z,12.40
2023-04-25T07:28:00.305Z,12.10
2023-04-25T07:30:27.113Z,11.90
2023-04-25T07:32:55.196Z,12.00
2023-04-25T07:35:21.889Z,12.80
2023-04-25T07:37:48.961Z,13.90
2023-04-25T07:40:18.592Z,13.80
2023-04-25T07:42:45.492Z,13.40
2023-04-25T07:45:12.394Z,12.70
2023-04-25T07:47:41.597Z,12.00
2023-04-25T07:50:08.858Z,11.60
2023-04-25T07:52:35.907Z,11.60
2023-04-25T07:55:02.619Z,12.00
2023-04-25T07:57:30.726Z,12.20
2023-04-25T07:59:57.460Z,12.60
2023-04-25T08:02:24.221Z,13.00
2023-04-25T08:04:51.310Z,13.00
2023-04-25T08:07:18.085Z,13.30
2023-04-25T08:09:45.089Z,13.60
2023-04-25T08:12:12.276Z,14.00
2023-04-25T08:14:40.756Z,14.10
2023-04-25T08:17:07.521Z,14.50
2023-04-25T08:19:34.457Z,14.20
2023-04-25T08:22:01.368Z,13.40
2023-04-25T08:24:28.005Z,13.20
2023-04-25T08:26:54.941Z,13.50
2023-04-25T08:29:21.744Z,14.10
2023-04-25T08:31:49.025Z,14.50
2023-04-25T08:34:16.192Z,14.90
2023-04-25T08:36:45.682Z,14.60
2023-04-25T08:39:13.887Z,14.30
2023-04-25T08:41:45.376Z,14.50
2023-04-25T08:44:12.610Z,14.60
2023-04-25T08:46:46.747Z,15.00
2023-04-25T08:49:15.968Z,15.30
2023-04-25T08:51:51.577Z,15.00
2023-04-25T08:54:34.327Z,14.90
2023-04-25T08:57:04.801Z,15.00
2023-04-25T08:59:36.623Z,14.60
2023-04-25T09:02:09.298Z,13.60
2023-04-25T09:04:38.622Z,13.00
2023-04-25T09:07:06.008Z,12.80
2023-04-25T09:09:33.475Z,13.00
2023-04-25T09:12:02.675Z,13.40
2023-04-25T09:14:35.496Z,13.60
2023-04-25T09:17:05.800Z,13.70
2023-04-25T09:19:41.409Z,13.40
2023-04-25T09:22:11.810Z,12.90
2023-04-25T09:24:38.548Z,12.40
2023-04-25T09:27:13.856Z,12.00
2023-04-25T09:29:45.442Z,11.90
2023-04-25T09:32:13.973Z,12.60
2023-04-25T09:34:46.694Z,13.80
2023-04-25T09:37:13.359Z,14.70
2023-04-25T09:39:40.676Z,15.60
2023-04-25T09:42:07.605Z,15.60
2023-04-25T09:44:34.387Z,15.10
2023-04-25T09:47:01.358Z,14.50
2023-04-25T09:49:28.869Z,14.00
2023-04-25T09:52:02.037Z,13.70
2023-04-25T09:54:28.682Z,13.20
2023-04-25T09:56:55.489Z,13.10
2023-04-25T09:59:25.918Z,13.10
2023-04-25T10:01:55.000Z,13.30
2023-04-25T10:04:32.169Z,13.50
2023-04-25T10:07:01.270Z,13.40
2023-04-25T10:09:32.913Z,13.20
2023-04-25T10:12:02.569Z,13.20
2023-04-25T10:14:33.139Z,13.40
2023-04-25T10:17:00.703Z,13.50
2023-04-25T10:19:33.767Z,13.60
2023-04-25T10:22:38.136Z,13.70
2023-04-25T10:25:08.958Z,13.70
2023-04-25T10:27:36.741Z,13.40
2023-04-25T10:30:11.338Z,13.10
2023-04-25T10:32:38.262Z,12.80
2023-04-25T10:35:19.882Z,12.60
2023-04-25T10:38:06.318Z,12.20
2023-04-25T10:40:34.453Z,11.70
2023-04-25T10:43:51.081Z,11.60
2023-04-25T10:46:32.713Z,12.10
2023-04-25T10:49:03.384Z,12.60
2023-04-25T10:51:51.442Z,13.50
2023-04-25T10:54:26.470Z,14.40
2023-04-25T10:56:54.180Z,15.40
2023-04-25T10:59:22.512Z,15.40
2023-04-25T11:01:53.421Z,15.40
2023-04-25T11:04:22.566Z,15.10
2023-04-25T11:07:18.381Z,15.00
2023-04-25T11:09:46.622Z,15.20
2023-04-25T11:12:14.123Z,15.00
2023-04-25T11:14:42.374Z,14.70
2023-04-25T11:17:09.944Z,14.20
2023-04-25T11:19:36.764Z,14.10
2023-04-25T11:22:04.206Z,14.20
2023-04-25T11:24:34.876Z,14.30
2023-04-25T11:27:03.391Z,14.40
2023-04-25T11:29:31.756Z,14.30
2023-04-25T11:31:59.270Z,14.20
2023-04-25T11:34:26.991Z,14.30
2023-04-25T11:36:54.497Z,14.40
2023-04-25T11:39:22.313Z,14.20
2023-04-25T11:41:49.054Z,14.00
2023-04-25T11:44:20.536Z,13.80
2023-04-25T11:46:54.557Z,14.00
2023-04-25T11:49:22.907Z,13.90
2023-04-25T11:51:51.980Z,13.80
2023-04-25T11:54:18.600Z,13.70
2023-04-25T11:56:49.595Z,13.40
2023-04-25T11:59:17.667Z,13.00
2023-04-25T12:01:53.283Z,12.60
2023-04-25T12:04:26.506Z,12.60
2023-04-25T12:06:55.465Z,12.50
2023-04-25T12:09:30.653Z,12.40
2023-04-25T12:11:59.201Z,12.10
2023-04-25T12:14:27.885Z,11.90
2023-04-25T12:16:58.881Z,12.00
2023-04-25T12:19:26.861Z,12.10
2023-04-25T12:21:58.543Z,12.20
2023-04-25T12:24:29.599Z,12.30
2023-04-25T12:27:05.556Z,12.30
2023-04-25T12:29:49.303Z,12.10
2023-04-25T12:32:17.984Z,12.20
2023-04-25T12:34:46.598Z,12.40
2023-04-25T12:37:13.520Z,12.80
2023-04-25T12:39:40.621Z,13.40
2023-04-25T12:42:10.011Z,14.00
2023-04-25T12:44:39.173Z,14.50
2023-04-25T12:47:06.717Z,14.70
2023-04-25T12:49:38.314Z,14.90
2023-04-25T12:52:04.969Z,15.00
2023-04-25T12:54:32.175Z,15.10
2023-04-25T12:56:59.277Z,15.00
2023-04-25T12:59:25.906Z,14.90
2023-04-25T13:01:53.866Z,14.90
2023-04-25T13:04:22.012Z,14.80
2023-04-25T13:06:48.942Z,14.90
2023-04-25T13:09:16.685Z,16.00
2023-04-25T13:11:47.000Z,16.90
2023-04-25T13:14:17.283Z,16.80
2023-04-25T13:16:48.827Z,16.10
2023-04-25T13:19:15.476Z,15.40
2023-04-25T13:21:42.115Z,14.70
2023-04-25T13:24:08.989Z,14.00
2023-04-25T13:26:35.788Z,13.30
2023-04-25T13:29:06.454Z,13.20
2023-04-25T13:31:36.841Z,13.20
2023-04-25T13:34:10.755Z,13.20
2023-04-25T13:36:37.880Z,13.10
2023-04-25T13:39:06.350Z,13.30
2023-04-25T13:41:33.429Z,13.60
2023-04-25T13:44:02.729Z,13.80
2023-04-25T13:46:45.594Z,13.70
2023-04-25T13:49:16.837Z,13.60
2023-04-25T13:51:43.818Z,13.70
2023-04-25T13:54:10.634Z,13.90
2023-04-25T13:56:37.346Z,14.00
2023-04-25T13:59:06.331Z,13.80
2023-04-25T14:01:38.403Z,13.70
2023-04-25T14:04:08.113Z,13.60
2023-04-25T14:06:38.731Z,13.50
2023-04-25T14:09:05.730Z,13.40
2023-04-25T14:11:35.820Z,13.50
2023-04-25T14:14:02.447Z,13.50
2023-04-25T14:16:36.529Z,13.30
2023-04-25T14:19:03.743Z,12.90
2023-04-25T14:21:36.322Z,12.60
2023-04-25T14:24:03.144Z,12.50
2023-04-25T14:26:31.888Z,12.60
2023-04-25T14:28:58.522Z,12.80
2023-04-25T14:31:26.086Z,13.30
2023-04-25T14:33:53.044Z,13.30
2023-04-25T14:36:22.169Z,13.20
2023-04-25T14:41:43.622Z,12.90
2023-04-25T14:44:10.363Z,12.80
2023-04-25T14:46:37.618Z,12.70
2023-04-25T14:49:06.998Z,12.70
2023-04-25T14:51:33.959Z,12.90
2023-04-25T14:54:03.863Z,13.10
2023-04-25T14:56:30.502Z,13.20
2023-04-25T14:59:03.197Z,13.60
2023-04-25T15:01:29.999Z,15.10
2023-04-25T15:04:03.547Z,15.40
2023-04-25T15:06:31.606Z,14.90
2023-04-25T15:09:00.920Z,14.10
2023-04-25T15:11:27.660Z,13.40
2023-04-25T15:13:54.477Z,12.80
2023-04-25T15:16:22.403Z,12.30
2023-04-25T15:18:49.102Z,12.00
2023-04-25T15:21:17.448Z,11.70
2023-04-25T15:23:44.136Z,11.40
2023-04-25T15:26:14.651Z,11.20
2023-04-25T15:28:42.230Z,11.20
2023-04-25T15:31:08.872Z,11.20
2023-04-25T15:33:35.598Z,11.50
2023-04-25T15:36:04.314Z,11.70
2023-04-25T15:38:31.156Z,11.90
2023-04-25T15:40:57.847Z,12.20
2023-04-25T15:43:25.626Z,12.60
2023-04-25T15:45:55.889Z,13.10
2023-04-25T15:48:24.065Z,13.80
2023-04-25T15:50:50.749Z,14.00
2023-04-25T15:53:17.600Z,14.10
2023-04-25T15:55:44.583Z,13.60
2023-04-25T15:58:13.689Z,13.80
2023-04-25T16:00:40.409Z,14.00
2023-04-25T16:03:11.248Z,14.10
2023-04-25T16:05:40.985Z,15.00
2023-04-25T16:11:01.200Z,15.50
2023-04-25T16:13:30.442Z,14.90
2023-04-25T16:15:57.653Z,14.40
2023-04-25T16:18:26.580Z,13.70
2023-04-25T16:20:53.694Z,13.20
2023-04-25T16:23:20.358Z,12.80
2023-04-25T16:25:47.696Z,12.50
2023-04-25T16:28:14.431Z,12.40
2023-04-25T16:30:41.470Z,12.50
2023-04-25T16:33:08.935Z,12.40
2023-04-25T16:35:37.758Z,12.20
2023-04-25T16:38:05.341Z,12.10
2023-04-25T16:40:34.259Z,12.40
2023-04-25T16:43:01.942Z,12.70
2023-04-25T16:45:28.658Z,12.80
2023-04-25T16:47:55.677Z,12.60
2023-04-25T16:50:22.494Z,12.30
2023-04-25T16:52:49.617Z,12.00
2023-04-25T16:55:16.278Z,11.90
2023-04-25T16:57:45.292Z,11.70
2023-04-25T17:00:12.910Z,11.60
2023-04-25T17:02:40.796Z,11.50
2023-04-25T17:05:07.896Z,11.30
2023-04-25T17:07:36.617Z,11.30
2023-04-25T17:10:03.772Z,11.10
2023-04-25T17:12:31.824Z,11.00
2023-04-25T17:15:00.966Z,10.90
2023-04-25T17:17:28.287Z,10.80
2023-04-25T17:19:55.537Z,10.80
2023-04-25T17:22:25.416Z,10.70
2023-04-25T17:24:53.809Z,10.70
2023-04-25T17:27:20.488Z,10.70
2023-04-25T17:32:41.065Z,10.60
2023-04-25T17:35:10.312Z,10.40
2023-04-25T17:37:38.016Z,10.30
2023-04-25T17:40:12.042Z,10.30
2023-04-25T17:42:39.794Z,10.20
2023-04-25T17:45:10.838Z,10.10
2023-04-25T17:47:37.572Z,10.00
2023-04-25T17:50:05.351Z,9.90
2023-04-25T17:52:32.343Z,9.90
2023-04-25T17:55:01.565Z,9.80
2023-04-25T17:57:29.099Z,9.70
2023-04-25T17:59:57.969Z,9.70
2023-04-25T18:02:25.537Z,9.60
2023-04-25T18:04:52.762Z,9.60
2023-04-25T18:07:22.278Z,9.60
2023-04-25T18:09:52.209Z,9.60
2023-04-25T18:12:19.034Z,9.60
2023-04-25T18:14:46.096Z,9.50
2023-04-25T18:17:19.516Z,9.40
2023-04-25T18:19:46.479Z,9.30
2023-04-25T18:22:14.807Z,9.30
2023-04-25T18:24:42.998Z,9.20
2023-04-25T18:27:16.391Z,9.10
2023-04-25T18:29:45.503Z,9.10
2023-04-25T18:32:17.331Z,9.00
2023-04-25T18:34:46.223Z,8.90
2023-04-25T18:37:16.804Z,8.90
2023-04-25T18:39:47.064Z,8.80
2023-04-25T18:42:18.560Z,8.70
2023-04-25T18:44:46.367Z,8.40
2023-04-25T18:47:13.326Z,8.20
2023-04-25T18:49:44.545Z,8.00
2023-04-25T18:52:12.774Z,7.80
2023-04-25T18:54:45.596Z,7.60
2023-04-25T18:57:14.525Z,7.30
2023-04-25T18:59:41.634Z,7.10
2023-04-25T19:02:09.290Z,6.80
2023-04-25T19:04:39.685Z,6.60
2023-04-25T19:07:06.935Z,6.30
2023-04-25T19:09:33.661Z,6.00
2023-04-25T19:12:00.571Z,5.80
2023-04-25T19:14:28.423Z,5.50
2023-04-25T19:17:03.799Z,5.30
2023-04-25T19:19:30.598Z,5.20
2023-04-25T19:21:58.577Z,5.00
2023-04-25T19:24:27.382Z,4.90
2023-04-25T19:26:58.023Z,4.90
2023-04-25T19:29:25.036Z,4.90
2023-04-25T19:31:52.808Z,4.90
2023-04-25T19:34:19.808Z,4.80
2023-04-25T19:36:46.533Z,4.80
2023-04-25T19:39:13.308Z,4.80
2023-04-25T19:41:40.191Z,4.90
2023-04-25T19:44:08.884Z,5.00
2023-04-25T19:46:36.802Z,5.10
2023-04-25T19:49:09.331Z,5.30
2023-04-25T19:51:37.025Z,5.40
2023-04-25T19:56:56.642Z,5.90
2023-04-25T19:59:24.242Z,6.10
2023-04-25T20:01:51.282Z,6.20
2023-04-25T20:04:18.446Z,6.20
2023-04-25T20:06:46.316Z,6.20
2023-04-25T20:09:13.043Z,6.20
2023-04-25T20:11:42.431Z,6.20
2023-04-25T20:14:09.130Z,6.20
2023-04-25T20:16:36.701Z,6.10
2023-04-25T20:19:05.620Z,6.00
2023-04-25T20:21:37.869Z,5.90
2023-04-25T20:24:05.011Z,5.90
2023-04-25T20:26:39.464Z,5.80
2023-04-25T20:29:06.435Z,5.80
2023-04-25T20:34:32.924Z,5.70
2023-04-25T20:37:01.674Z,5.60
2023-04-25T20:39:29.050Z,5.50
2023-04-25T20:44:49.194Z,5.40
2023-04-25T20:47:18.939Z,5.30
2023-04-25T20:49:45.984Z,5.20
2023-04-25T20:55:08.909Z,5.00
2023-04-25T20:57:35.523Z,4.80
2023-04-25T21:00:08.583Z,4.60
2023-04-25T21:02:36.764Z,4.50
2023-04-25T21:05:04.410Z,4.30
2023-04-25T21:07:31.409Z,4.10
2023-04-25T21:09:58.051Z,3.90
2023-04-25T21:12:27.248Z,3.80
2023-04-25T21:14:54.042Z,3.60
2023-04-25T21:17:21.195Z,3.50
2023-04-25T21:19:52.048Z,3.40
2023-04-25T21:22:24.173Z,3.30
2023-04-25T21:27:45.830Z,3.20
2023-04-25T21:30:13.301Z,3.20
2023-04-25T21:35:34.546Z,3.30
2023-04-25T21:38:06.926Z,3.30
2023-04-25T21:40:34.831Z,3.30
2023-04-25T21:43:04.395Z,3.30
2023-04-25T21:45:47.172Z,3.30
2023-04-25T21:48:30.412Z,3.30
2023-04-25T21:50:57.470Z,3.20
2023-04-25T21:53:29.333Z,3.10
2023-04-25T21:55:55.928Z,3.00
2023-04-25T21:58:27.639Z,3.00
2023-04-25T22:03:46.674Z,2.80
2023-04-25T22:06:13.564Z,2.60
2023-04-25T22:08:40.388Z,2.40
2023-04-25T22:11:09.092Z,2.30
2023-04-25T22:13:37.122Z,2.20
2023-04-25T22:16:07.143Z,2.10
2023-04-25T22:18:33.802Z,2.10
2023-04-25T22:21:00.874Z,2.10
2023-04-25T22:23:27.576Z,1.90
2023-04-25T22:25:54.402Z,1.80
2023-04-25T22:28:21.350Z,1.60
2023-04-25T22:30:48.015Z,1.50
2023-04-25T22:36:10.999Z,1.40
2023-04-25T22:38:39.124Z,1.40
2023-04-25T22:41:05.808Z,1.50
2023-04-25T22:43:45.377Z,1.40
2023-04-25T22:46:19.154Z,1.40
2023-04-25T22:51:38.711Z,1.40
2023-04-25T23:02:39.788Z,1.50
2023-04-25T23:07:59.089Z,1.50
2023-04-25T23:10:27.911Z,1.50
2023-04-25T23:12:57.286Z,1.40
2023-04-25T23:15:28.752Z,1.30
2023-04-25T23:17:55.567Z,1.20
2023-04-25T23:20:23.482Z,1.20
2023-04-25T23:22:50.677Z,1.10
2023-04-25T23:25:18.646Z,1.00
2023-04-25T23:27:48.558Z,0.90
2023-04-25T23:30:20.966Z,0.90
2023-04-25T23:32:52.047Z,1.00
2023-04-25T23:35:19.951Z,1.00
2023-04-25T23:37:48.970Z,1.00
2023-04-25T23:43:08.315Z,1.00
2023-04-25T23:45:39.838Z,1.10
2023-04-25T23:48:08.929Z,1.20
2023-04-25T23:50:36.064Z,1.30
2023-04-25T23:53:03.990Z,1.50
2023-04-25T23:55:31.436Z,1.50
2023-04-25T23:57:58.280Z,1.50
